Latest Weather Observations for Hobart Airport

IDT60901

Issued at 10:55 pm EST Thursday 28 August 2014 (issued every 10 minutes, with the page automatically refreshed every 10 minutes)

About weather observations | Map of Hobart area stations | Latest observations for Hobart area | Other Formats
Station Details ID: 094008 Name: HOBART AIRPORT Lat: -42.83 Lon: 147.50 Height: 4.0 m
Data from the previous 72 hours. | See also: Recent months at Hobart Airport
Date/Time
EST
Tmp

°C
App
Tmp
°C
Dew
Point
°C
Rel
Hum
%
Delta-T

°C
Wind Press
QNH
hPa
Press
MSL
hPa
Rain
since
9 am
mm
Dir
 
Spd
km/h
Gust
km/h
Spd
kts
Gust
kts
28/10:30pm 8.6 6.6 7.3 91 0.6 NW 7 9 4 5 1028.0 1028.1 0.0
28/10:00pm 9.4 9.0 8.1 92 0.6 CALM 0 6 0 3 1028.0 1028.1 0.0
28/09:30pm 9.4 8.9 7.7 89 0.8 CALM 0 0 0 0 1027.9 1028.0 0.0
28/09:00pm 10.9 9.8 8.4 84 1.2 SW 4 7 2 4 1027.9 1028.0 0.0
28/08:30pm 11.0 9.2 7.9 81 1.5 S 7 7 4 4 1027.8 1027.9 0.0
28/08:00pm 11.4 8.4 7.7 78 1.8 S 13 15 7 8 1027.7 1027.8 0.0
28/07:30pm 11.4 9.6 8.1 80 1.6 S 7 9 4 5 1027.6 1027.7 0.0
28/07:00pm 12.0 10.2 8.1 77 1.9 S 7 9 4 5 1027.5 1027.6 0.0
28/06:30pm 12.2 10.4 8.1 76 2.0 S 7 9 4 5 1027.5 1027.6 0.0
28/06:00pm 12.0 9.5 8.3 78 1.8 SSW 11 13 6 7 1027.1 1027.2 0.0
28/05:30pm 12.3 9.9 8.7 79 1.8 S 11 13 6 7 1027.0 1027.1 0.0
28/05:00pm 13.4 10.9 8.4 72 2.5 SSE 11 13 6 7 1026.9 1027.0 0.0
28/04:30pm 14.4 11.5 8.2 66 3.1 SE 13 15 7 8 1026.8 1026.9 0.0
28/04:00pm 14.4 11.6 8.4 67 3.0 SE 13 17 7 9 1026.8 1026.9 0.0
28/03:30pm 14.9 11.4 7.4 61 3.7 SSE 15 19 8 10 1026.8 1026.9 0.0
28/03:00pm 15.1 11.4 6.1 55 4.3 SSE 15 17 8 9 1026.9 1027.0 0.0
28/02:30pm 14.8 11.7 7.2 60 3.7 SE 13 17 7 9 1027.0 1027.1 0.0
28/02:00pm 15.0 11.6 7.7 61 3.6 SSE 15 17 8 9 1027.0 1027.1 0.0
28/01:30pm 15.0 13.0 7.0 59 3.9 ESE 7 9 4 5 1027.2 1027.3 0.0
28/01:00pm 13.8 10.9 8.1 68 2.8 SSE 13 17 7 9 1027.6 1027.7 0.0
28/12:30pm 14.6 12.4 5.2 53 4.4 N 6 11 3 6 1028.0 1028.1 0.0
28/12:00pm 14.1 11.7 5.1 54 4.2 NW 7 11 4 6 1028.4 1028.5 0.0
28/11:30am 14.0 11.5 6.7 61 3.5 NW 9 13 5 7 1028.7 1028.8 0.0
28/11:00am 12.8 9.9 6.5 65 3.0 WNW 11 15 6 8 1029.1 1029.2 0.0
28/10:30am 12.5 9.2 6.6 67 2.8 NW 13 17 7 9 1029.2 1029.3 0.0
28/10:00am 10.9 8.5 6.9 76 1.9 WNW 9 11 5 6 1029.5 1029.6 0.0
28/09:30am 9.9 6.3 6.7 80 1.5 NW 15 19 8 10 1029.6 - 0.0
28/09:00am 9.6 5.7 7.3 85 1.1 NNW 17 20 9 11 1029.6 1029.7 0.4
28/08:30am 9.0 6.6 6.8 86 1.0 NW 9 11 5 6 1029.5 - 0.4
28/08:00am 8.6 7.3 6.2 85 1.1 WNW 2 7 1 4 1029.4 1029.5 0.4
28/07:30am 7.3 4.2 5.7 89 0.7 WNW 11 13 6 7 1029.2 - 0.4
28/07:00am 7.2 4.1 5.6 89 0.7 NW 11 15 6 8 1029.3 1029.4 0.4
28/06:30am 7.2 4.7 6.5 95 0.3 N 9 11 5 6 1028.8 - 0.4
28/06:00am 7.5 5.5 6.4 93 0.5 NW 6 9 3 5 1028.9 1029.0 0.4
28/05:30am 7.6 6.0 6.3 91 0.6 WNW 4 13 2 7 1028.8 - 0.4
28/05:00am 7.7 6.0 6.1 90 0.7 NNW 4 7 2 4 1028.7 1028.8 0.4
28/04:30am 8.9 6.6 7.4 90 0.7 N 9 11 5 6 1028.8 - 0.2
28/04:00am 8.5 7.4 7.0 90 0.7 WSW 2 6 1 3 1028.5 1028.6 0.2
28/03:30am 8.5 7.4 7.0 90 0.7 WSW 2 6 1 3 1028.5 - 0.2
28/03:00am 9.0 7.1 7.5 90 0.7 N 7 7 4 4 1028.5 1028.6 0.2
28/02:30am 9.3 7.4 7.4 88 0.9 NE 7 11 4 6 1028.4 - 0.0
28/02:00am 9.5 7.6 6.9 84 1.2 N 6 7 3 4 1028.7 1028.8 0.0
28/01:30am 9.3 6.9 7.2 87 1.0 NNW 9 13 5 7 1029.2 - 0.0
28/01:00am 10.5 8.5 7.3 80 1.5 NNW 7 11 4 6 1029.2 1029.3 0.0
28/12:30am 10.0 8.2 8.1 88 0.9 N 7 11 4 6 1029.2 - 0.0
28/12:00am 10.7 7.8 8.2 84 1.2 NW 13 15 7 8 1029.1 1029.2 0.0
 
Date/Time
EST
Tmp

°C
App
Tmp
°C
Dew
Point
°C
Rel
Hum
%
Delta-T

°C
Wind Press
QNH
hPa
Press
MSL
hPa
Rain
since
9 am
mm
Dir
 
Spd
km/h
Gust
km/h
Spd
kts
Gust
kts
27/11:30pm 11.5 9.9 8.9 84 1.3 W 7 11 4 6 1029.1 - 0.0
27/11:00pm 12.0 10.1 7.7 75 2.1 WSW 7 9 4 5 1029.2 1029.3 0.0
27/10:30pm 12.2 10.0 7.7 74 2.2 SSW 9 13 5 7 1029.1 - 0.0
27/10:00pm 12.5 9.8 7.5 71 2.4 SW 11 17 6 9 1029.1 1029.2 0.0
27/09:30pm 12.3 9.8 8.4 77 1.9 SW 11 17 6 9 1028.9 - 0.0
27/09:00pm 12.6 9.0 8.3 75 2.1 SSW 17 22 9 12 1028.6 1028.7 0.0
27/08:30pm 12.4 8.7 8.1 75 2.1 SSW 17 20 9 11 1028.4 - 0.0
27/08:00pm 13.4 9.6 7.4 67 2.9 SW 17 20 9 11 1028.2 1028.3 0.0
27/07:30pm 13.0 10.4 7.7 70 2.6 SSW 11 13 6 7 1027.8 - 0.0
27/07:00pm 13.8 10.5 7.9 67 2.9 SSW 15 20 8 11 1027.6 1027.7 0.0
27/06:30pm 12.6 10.7 7.7 72 2.4 SW 7 11 4 6 1027.2 - 0.0
27/06:00pm 13.4 11.3 8.1 70 2.6 S 9 11 5 6 1026.8 1026.9 0.0
27/05:30pm 13.3 11.4 8.9 74 2.2 S 9 13 5 7 1026.6 - 0.0
27/05:00pm 14.9 12.1 8.5 65 3.2 S 13 15 7 8 1026.5 1026.6 0.0
27/04:30pm 16.1 13.1 7.9 58 4.1 SSE 13 15 7 8 1026.3 - 0.0
27/04:00pm 16.9 14.0 8.0 55 4.5 SE 13 17 7 9 1026.2 1026.3 0.0
27/03:30pm 17.1 14.2 8.0 55 4.6 SE 13 17 7 9 1026.1 - 0.0
27/03:00pm 19.4 14.9 7.1 44 6.2 SSE 20 22 11 12 1026.1 1026.2 0.0
27/02:30pm 19.6 17.8 7.1 44 6.3 NW 6 15 3 8 1026.1 - 0.0
27/02:00pm 19.3 16.6 7.5 46 6.0 NNW 11 17 6 9 1026.1 1026.2 0.0
27/01:30pm 18.3 15.0 6.6 46 5.8 NNW 13 19 7 10 1026.4 - 0.0
27/01:00pm 18.0 14.8 6.9 48 5.5 NNW 13 19 7 10 1026.5 1026.6 0.0
27/12:30pm 17.7 14.1 6.8 49 5.4 NW 15 20 8 11 1027.1 - 0.0
27/12:00pm 17.5 13.8 7.8 53 4.9 N 17 26 9 14 1027.4 1027.5 0.0
27/11:30am 16.8 13.2 6.8 51 4.9 N 15 22 8 12 1027.7 - 0.0
27/11:00am 15.9 12.0 5.3 49 5.0 N 15 24 8 13 1028.0 1028.1 0.0
27/10:30am 15.1 10.9 5.9 54 4.4 N 17 24 9 13 1028.2 - 0.0
27/10:00am 14.6 11.0 8.4 66 3.1 NNW 17 24 9 13 1028.4 1028.5 0.0
27/09:30am 13.6 9.5 8.6 72 2.5 N 20 28 11 15 1028.6 - 0.0
27/09:00am 12.3 8.5 8.9 80 1.7 NNW 19 28 10 15 1028.7 1028.8 0.0
27/08:30am 11.5 7.4 8.0 79 1.7 NNW 19 30 10 16 1028.7 - 0.0
27/08:00am 9.4 6.0 7.5 88 0.9 NNW 15 20 8 11 1028.6 1028.7 0.0
27/07:30am 8.6 4.6 6.6 87 0.9 NNW 17 26 9 14 1028.5 - 0.0
27/07:00am 8.7 5.0 6.5 86 1.0 NNW 15 19 8 10 1028.1 1028.2 0.0
27/06:30am 7.7 3.3 6.4 91 0.6 NW 19 20 10 11 1027.9 - 0.0
27/06:00am 8.4 4.5 6.9 90 0.7 NNW 17 22 9 12 1027.8 1027.9 0.0
27/05:30am 7.9 3.3 6.4 90 0.7 NW 20 24 11 13 1027.8 - 0.0
27/05:00am 8.9 4.0 7.0 88 0.9 NW 22 26 12 14 1027.9 1028.0 0.0
27/04:30am 8.9 4.6 7.2 89 0.8 NW 19 19 10 10 1027.8 - 0.0
27/04:00am 8.8 4.9 7.1 89 0.8 NNW 17 22 9 12 1028.0 1028.1 0.0
27/03:30am 9.3 5.5 7.4 88 0.9 NNW 17 20 9 11 1028.0 - 0.0
27/03:00am 7.8 4.1 6.3 90 0.7 NNW 15 17 8 9 1028.1 1028.2 0.0
27/02:30am 9.4 6.3 7.3 87 1.0 NW 13 17 7 9 1028.3 - 0.0
27/02:00am 9.8 6.7 7.3 84 1.2 NW 13 17 7 9 1028.3 1028.4 0.0
27/01:30am 9.1 6.7 6.9 86 1.0 NNW 9 13 5 7 1028.4 - 0.0
27/01:00am 9.3 6.9 7.2 87 1.0 NW 9 11 5 6 1028.4 1028.5 0.0
27/12:30am 10.4 7.4 7.7 83 1.3 NNW 13 17 7 9 1028.7 - 0.0
27/12:00am 9.3 6.2 7.4 88 0.9 NNW 13 17 7 9 1028.8 1028.9 0.0
 
Date/Time
EST
Tmp

°C
App
Tmp
°C
Dew
Point
°C
Rel
Hum
%
Delta-T

°C
Wind Press
QNH
hPa
Press
MSL
hPa
Rain
since
9 am
mm
Dir
 
Spd
km/h
Gust
km/h
Spd
kts
Gust
kts
26/11:30pm 8.7 6.8 7.4 91 0.6 NNW 7 13 4 7 1028.7 - 0.0
26/11:00pm 8.6 6.3 7.5 93 0.5 NW 9 13 5 7 1028.6 1028.7 0.0
26/10:30pm 10.1 8.2 7.6 84 1.2 NW 7 11 4 6 1028.5 - 0.0
26/10:00pm 10.0 8.3 7.7 86 1.1 W 6 9 3 5 1028.6 1028.7 0.0
26/09:30pm 9.2 8.7 7.9 92 0.6 CALM 0 6 0 3 1028.6 - 0.0
26/09:00pm 8.1 6.1 7.2 94 0.4 NW 7 7 4 4 1028.6 1028.7 0.0
26/08:30pm 8.5 7.9 7.4 93 0.5 CALM 0 0 0 0 1028.6 - 0.0
26/08:00pm 8.8 6.6 7.7 93 0.5 NW 9 11 5 6 1028.7 1028.8 0.0
26/07:30pm 10.0 9.6 8.1 88 0.9 CALM 0 4 0 2 1028.5 - 0.0
26/07:00pm 9.9 8.7 8.0 88 0.9 S 4 7 2 4 1028.2 1028.3 0.0
26/06:30pm 11.3 9.7 8.7 84 1.3 SSE 7 9 4 5 1028.1 - 0.0
26/06:00pm 12.2 10.3 9.0 81 1.6 S 9 13 5 7 1027.8 1027.9 0.0
26/05:30pm 13.2 10.9 9.0 75 2.1 S 11 13 6 7 1027.8 - 0.0
26/05:00pm 13.8 12.0 9.3 74 2.3 S 9 11 5 6 1027.8 1027.9 0.0
26/04:30pm 15.4 13.1 9.1 66 3.2 SSE 11 13 6 7 1027.9 - 0.0
26/04:00pm 15.8 13.2 9.2 65 3.4 S 13 17 7 9 1028.1 1028.2 0.0
26/03:30pm 15.8 12.3 8.9 63 3.5 SSE 17 19 9 10 1028.2 - 0.0
26/03:00pm 15.9 12.7 8.6 62 3.7 SSE 15 17 8 9 1028.3 1028.4 0.0
26/02:30pm 15.7 12.3 9.0 64 3.4 SSE 17 19 9 10 1028.6 - 0.0
26/02:00pm 15.9 12.8 9.0 63 3.5 SSE 15 19 8 10 1028.7 1028.8 0.0
26/01:30pm 14.7 11.1 8.5 66 3.1 SSE 17 20 9 11 1029.0 - 0.0
26/01:00pm 14.8 11.7 8.9 68 3.0 SSE 15 17 8 9 1029.3 1029.4 0.0
26/12:30pm 14.5 11.5 9.2 70 2.7 SE 15 17 8 9 1029.7 - 0.0
26/12:00pm 14.3 11.5 8.7 69 2.8 SE 13 17 7 9 1030.2 1030.3 0.0
26/11:30am 15.3 13.2 8.1 62 3.6 WNW 9 13 5 7 1030.6 - 0.0
26/11:00am 14.5 11.5 7.8 64 3.3 NW 13 17 7 9 1030.9 1031.0 0.0
26/10:30am 14.2 11.8 8.6 69 2.8 N 11 17 6 9 1031.2 - 0.0
26/10:00am 12.9 10.5 8.7 75 2.1 NW 11 15 6 8 1031.5 1031.6 0.0
26/09:30am 11.4 8.4 7.9 79 1.7 WNW 13 15 7 8 1031.7 - 0.0
26/09:00am 10.7 8.9 8.0 83 1.3 N 7 9 4 5 1031.7 1031.8 0.4
26/08:30am 9.3 7.0 7.6 89 0.8 NW 9 13 5 7 1031.6 - 0.2
26/08:00am 8.0 5.6 6.9 93 0.5 NNW 9 13 5 7 1031.5 1031.6 0.2
26/07:30am 7.0 2.9 6.1 94 0.4 WNW 17 20 9 11 1031.3 - 0.2
26/07:00am 6.2 2.0 5.5 95 0.3 NW 17 19 9 10 1031.2 1031.3 0.2
26/06:30am 6.1 2.6 5.4 95 0.3 NW 13 17 7 9 1030.8 - 0.2
26/06:00am 5.5 1.1 5.0 97 0.2 WNW 17 19 9 10 1030.7 1030.8 0.2
26/05:30am 5.5 2.3 5.0 97 0.2 NW 11 15 6 8 1030.6 - 0.2
26/05:00am 6.1 3.4 5.4 95 0.3 NNW 9 15 5 8 1030.4 1030.5 0.2
26/04:30am 6.1 3.0 5.6 97 0.2 WNW 11 13 6 7 1030.5 - 0.2
26/04:00am 5.7 1.8 5.5 99 0.1 WNW 15 17 8 9 1030.5 1030.6 0.2
26/03:30am 6.4 2.6 5.9 97 0.2 NW 15 17 8 9 1030.5 - 0.2
26/03:00am 6.2 3.5 5.5 95 0.3 WNW 9 13 5 7 1030.6 1030.7 0.2
26/02:30am 6.2 3.5 5.5 95 0.3 W 9 11 5 6 1030.7 - 0.2
26/02:00am 6.7 4.6 6.0 95 0.3 WNW 6 11 3 6 1030.9 1031.0 0.2
26/01:30am 6.7 4.2 6.5 99 0.1 W 9 13 5 7 1031.0 - 0.2
26/01:00am 7.7 5.3 6.8 94 0.4 NW 9 9 5 5 1031.0 1031.1 0.2
26/12:30am 6.1 4.0 5.9 99 0.1 NNW 6 7 3 4 1031.1 - 0.2
26/12:00am 7.6 5.7 6.5 93 0.5 NNW 6 7 3 4 1031.1 1031.2 0.2
 
Date/Time
EST
Tmp

°C
App
Tmp
°C
Dew
Point
°C
Rel
Hum
%
Delta-T

°C
Wind Press
QNH
hPa
Press
MSL
hPa
Rain
since
9 am
mm
Dir
 
Spd
km/h
Gust
km/h
Spd
kts
Gust
kts
25/11:30pm 7.5 5.6 6.8 95 0.3 W 6 7 3 4 1031.1 - 0.2
25/11:00pm 6.3 4.0 5.8 97 0.2 NW 7 9 4 5 1031.0 1031.1 0.2

Latest Capital City Observations: Canberra | Sydney | Melbourne | Brisbane | Adelaide | Perth | Hobart | Darwin

Other Formats:

Comma delimited format used in spreadsheet applications
http://www.bom.gov.au/fwo/IDT60901/IDT60901.94975.axf

JavaScript Object Notation format (JSON) in row-major order
http://www.bom.gov.au/fwo/IDT60901/IDT60901.94975.json